createdAt,value
2018-11-02T00:00:20.965Z,52.49
2018-11-02T00:01:21.081Z,49.56
2018-11-02T00:02:21.254Z,50.78
2018-11-02T00:03:21.428Z,59.81
2018-11-02T00:04:21.599Z,54.69
2018-11-02T00:05:21.776Z,52.73
2018-11-02T00:06:21.977Z,49.32
2018-11-02T00:07:22.127Z,49.80
2018-11-02T00:08:22.365Z,49.56
2018-11-02T00:09:22.484Z,52.98
2018-11-02T00:10:22.646Z,55.42
2018-11-02T00:11:22.816Z,53.47
2018-11-02T00:12:23.115Z,60.30
2018-11-02T00:13:23.172Z,53.22
2018-11-02T00:14:23.343Z,50.29
2018-11-02T00:15:23.522Z,51.76
2018-11-02T00:16:23.689Z,52.00
2018-11-02T00:17:23.863Z,50.05
2018-11-02T00:18:24.034Z,55.91
2018-11-02T00:19:24.203Z,59.57
2018-11-02T00:20:24.376Z,61.28
2018-11-02T00:21:24.548Z,51.03
2018-11-02T00:22:24.723Z,51.76
2018-11-02T00:23:24.896Z,50.05
2018-11-02T00:24:25.119Z,50.29
2018-11-02T00:25:25.246Z,56.64
2018-11-02T00:26:25.420Z,53.71
2018-11-02T00:27:25.593Z,50.78
2018-11-02T00:28:25.765Z,52.00
2018-11-02T00:29:25.943Z,49.56
2018-11-02T00:30:26.117Z,49.32
2018-11-02T00:31:26.290Z,49.07
2018-11-02T00:32:26.465Z,49.32
2018-11-02T00:33:26.635Z,49.32
2018-11-02T00:34:26.814Z,50.54
2018-11-02T00:35:26.985Z,49.56
2018-11-02T00:36:27.161Z,53.22
2018-11-02T00:37:27.333Z,52.00
2018-11-02T00:38:27.509Z,52.98
2018-11-02T00:39:27.686Z,52.73
2018-11-02T00:40:27.882Z,54.20
2018-11-02T00:41:28.042Z,52.98
2018-11-02T00:42:28.214Z,51.51
2018-11-02T00:43:28.387Z,51.27
2018-11-02T00:44:28.558Z,59.33
2018-11-02T00:45:28.730Z,59.33
2018-11-02T00:46:28.910Z,54.69
2018-11-02T00:47:29.079Z,66.16
2018-11-02T00:48:29.256Z,50.29
2018-11-02T00:49:29.436Z,50.54
2018-11-02T00:50:29.603Z,54.93
2018-11-02T00:51:29.777Z,52.00
2018-11-02T00:52:29.952Z,52.25
2018-11-02T00:53:30.128Z,52.49
2018-11-02T00:54:30.299Z,52.25
2018-11-02T00:55:30.472Z,54.20
2018-11-02T00:56:30.645Z,54.69
2018-11-02T00:57:30.817Z,54.44
2018-11-02T00:58:30.992Z,53.22
2018-11-02T00:59:31.168Z,50.54
2018-11-02T01:00:31.342Z,51.76
2018-11-02T01:01:31.513Z,52.73
2018-11-02T01:02:31.687Z,50.54
2018-11-02T01:03:31.858Z,54.44
2018-11-02T01:04:32.038Z,53.47
2018-11-02T01:07:32.538Z,55.66
2018-11-02T01:08:32.710Z,52.49
2018-11-02T01:09:32.885Z,51.51
2018-11-02T01:10:33.058Z,52.98
2018-11-02T01:11:33.232Z,50.78
2018-11-02T01:12:33.400Z,52.98
2018-11-02T01:13:33.571Z,50.54
2018-11-02T01:14:33.745Z,50.54
2018-11-02T01:16:34.103Z,54.93
2018-11-02T01:17:34.257Z,51.03
2018-11-02T01:18:34.429Z,52.25
2018-11-02T01:19:34.605Z,49.07
2018-11-02T01:20:34.787Z,51.76
2018-11-02T01:21:34.955Z,51.27
2018-11-02T01:22:35.125Z,51.76
2018-11-02T01:23:35.300Z,50.29
2018-11-02T01:24:35.504Z,53.47
2018-11-02T01:26:35.818Z,49.56
2018-11-02T01:27:35.998Z,51.27
2018-11-02T01:28:36.174Z,51.51
2018-11-02T01:29:36.350Z,51.03
2018-11-02T01:30:36.524Z,49.80
2018-11-02T01:31:36.699Z,50.78
2018-11-02T01:32:36.871Z,51.76
2018-11-02T01:33:37.044Z,50.78
2018-11-02T01:34:37.219Z,53.71
2018-11-02T01:35:37.394Z,52.00
2018-11-02T01:36:37.565Z,53.47
2018-11-02T01:37:37.746Z,50.54
2018-11-02T01:38:37.919Z,51.03
2018-11-02T01:39:38.092Z,54.20
2018-11-02T01:40:38.265Z,48.83
2018-11-02T01:41:38.440Z,50.54
2018-11-02T01:42:38.618Z,50.54
2018-11-02T01:43:38.787Z,49.07
2018-11-02T01:44:38.960Z,52.00
2018-11-02T01:45:39.132Z,52.00
2018-11-02T01:46:39.305Z,52.73
2018-11-02T01:47:39.479Z,50.54
2018-11-02T01:48:39.654Z,49.80
2018-11-02T01:49:39.831Z,50.05
2018-11-02T01:50:40.012Z,50.05
2018-11-02T01:51:40.178Z,51.27
2018-11-02T01:52:40.353Z,50.29
2018-11-02T01:53:40.529Z,48.34
2018-11-02T01:54:40.701Z,52.25
2018-11-02T01:55:40.874Z,50.78
2018-11-02T01:56:41.051Z,51.51
2018-11-02T01:57:41.224Z,65.43
2018-11-02T01:58:41.398Z,52.73
2018-11-02T01:59:41.572Z,52.00
2018-11-02T02:00:41.749Z,51.03
2018-11-02T02:01:41.923Z,49.80
2018-11-02T02:02:42.096Z,51.27
2018-11-02T02:03:42.270Z,48.58
2018-11-02T02:04:42.450Z,54.93
2018-11-02T02:05:42.626Z,56.64
2018-11-02T02:06:42.798Z,50.05
2018-11-02T02:07:42.973Z,50.05
2018-11-02T02:08:43.146Z,52.49
2018-11-02T02:09:43.318Z,49.07
2018-11-02T02:10:43.487Z,51.03
2018-11-02T02:11:43.661Z,51.51
2018-11-02T02:12:43.872Z,49.80
2018-11-02T02:13:44.011Z,48.10
2018-11-02T02:14:44.180Z,49.56
2018-11-02T02:15:44.353Z,49.80
2018-11-02T02:16:44.529Z,49.32
2018-11-02T02:17:44.703Z,50.78
2018-11-02T02:18:44.879Z,49.56
2018-11-02T02:19:45.052Z,52.73
2018-11-02T02:20:45.231Z,50.29
2018-11-02T02:21:45.409Z,47.85
2018-11-02T02:22:45.582Z,49.07
2018-11-02T02:23:45.758Z,48.34
2018-11-02T02:24:45.932Z,50.54
2018-11-02T02:25:46.107Z,51.76
2018-11-02T02:26:46.286Z,49.07
2018-11-02T02:27:46.454Z,48.10
2018-11-02T02:28:46.625Z,49.07
2018-11-02T02:29:46.808Z,50.05
2018-11-02T02:30:47.013Z,49.80
2018-11-02T02:31:47.151Z,48.10
2018-11-02T02:32:47.337Z,47.61
2018-11-02T02:33:47.504Z,60.55
2018-11-02T02:34:47.678Z,49.80
2018-11-02T02:35:47.852Z,48.34
2018-11-02T02:36:48.035Z,47.36
2018-11-02T02:37:48.202Z,47.61
2018-11-02T02:38:48.375Z,51.03
2018-11-02T02:39:48.547Z,50.05
2018-11-02T02:40:48.738Z,47.85
2018-11-02T02:41:48.895Z,47.85
2018-11-02T02:42:49.071Z,47.61
2018-11-02T02:43:49.241Z,52.73
2018-11-02T02:44:49.415Z,50.05
2018-11-02T02:45:49.598Z,50.05
2018-11-02T02:46:49.763Z,50.54
2018-11-02T02:47:49.939Z,49.56
2018-11-02T02:48:50.141Z,50.29
2018-11-02T02:49:50.289Z,49.07
2018-11-02T02:50:50.466Z,51.27
2018-11-02T02:51:50.640Z,49.80
2018-11-02T02:52:50.816Z,50.54
2018-11-02T02:53:50.994Z,50.05
2018-11-02T02:54:51.169Z,49.80
2018-11-02T02:55:51.341Z,49.07
2018-11-02T02:56:51.514Z,48.34
2018-11-02T02:57:51.688Z,51.27
2018-11-02T02:58:51.861Z,51.27
2018-11-02T02:59:52.036Z,54.44
2018-11-02T03:00:52.211Z,53.71
2018-11-02T03:01:52.385Z,50.78
2018-11-02T03:02:52.560Z,50.78
2018-11-02T03:03:52.737Z,50.78
2018-11-02T03:04:52.908Z,50.29
2018-11-02T03:05:53.083Z,51.03
2018-11-02T03:06:53.256Z,53.71
2018-11-02T03:07:53.427Z,50.54
2018-11-02T03:08:53.602Z,50.05
2018-11-02T03:09:53.775Z,49.07
2018-11-02T03:10:54.188Z,48.83
2018-11-02T03:11:54.126Z,50.54
2018-11-02T03:12:54.310Z,51.03
2018-11-02T03:13:54.475Z,49.80
2018-11-02T03:14:54.651Z,49.07
2018-11-02T03:15:54.827Z,50.78
2018-11-02T03:16:54.999Z,51.51
2018-11-02T03:17:55.172Z,51.27
2018-11-02T03:18:55.351Z,50.29
2018-11-02T03:19:55.522Z,52.00
2018-11-02T03:20:55.697Z,49.56
2018-11-02T03:21:55.895Z,51.76
2018-11-02T03:22:56.044Z,51.27
2018-11-02T03:23:56.228Z,53.47
2018-11-02T03:24:56.386Z,51.27
2018-11-02T03:25:56.575Z,49.80
2018-11-02T03:26:56.736Z,52.25
2018-11-02T03:27:56.909Z,51.27
2018-11-02T03:28:57.087Z,51.27
2018-11-02T03:29:57.313Z,53.47
2018-11-02T03:30:57.436Z,51.27
2018-11-02T03:31:57.605Z,64.94
2018-11-02T03:32:57.782Z,51.51
2018-11-02T03:33:57.956Z,48.34
2018-11-02T03:34:58.134Z,48.83
2018-11-02T03:35:58.322Z,50.29
2018-11-02T03:36:58.482Z,50.78
2018-11-02T03:37:58.655Z,48.58
2018-11-02T03:38:58.814Z,48.34
2018-11-02T03:39:58.993Z,49.56
2018-11-02T03:40:59.168Z,51.76
2018-11-02T03:41:59.344Z,52.49
2018-11-02T03:42:59.517Z,50.29
2018-11-02T03:43:59.691Z,50.05
2018-11-02T03:44:59.866Z,51.03
2018-11-02T03:46:00.041Z,61.77
2018-11-02T03:47:00.212Z,56.64
2018-11-02T03:48:00.388Z,62.99
2018-11-02T03:49:00.565Z,50.05
2018-11-02T03:50:00.742Z,57.37
2018-11-02T03:51:00.917Z,52.00
2018-11-02T03:52:01.091Z,50.29
2018-11-02T03:53:01.268Z,50.05
2018-11-02T03:54:01.445Z,50.29
2018-11-02T03:55:01.619Z,50.54
2018-11-02T03:56:01.793Z,51.27
2018-11-02T03:57:01.999Z,55.66
2018-11-02T03:58:02.142Z,60.30
2018-11-02T03:59:02.313Z,53.71
2018-11-02T04:00:02.486Z,50.54
2018-11-02T04:01:02.661Z,51.76
2018-11-02T04:02:02.834Z,50.78
2018-11-02T04:03:03.011Z,48.58
2018-11-02T04:04:03.180Z,49.56
2018-11-02T04:05:03.357Z,52.25
2018-11-02T04:06:03.531Z,50.78
2018-11-02T04:07:03.721Z,49.56
2018-11-02T04:08:03.880Z,49.56
2018-11-02T04:09:04.057Z,52.25
2018-11-02T04:10:04.237Z,50.78
2018-11-02T04:11:04.409Z,50.29
2018-11-02T04:12:04.578Z,48.34
2018-11-02T04:13:04.752Z,50.29
2018-11-02T04:14:04.930Z,49.32
2018-11-02T04:15:05.107Z,50.05
2018-11-02T04:16:05.286Z,51.03
2018-11-02T04:17:05.452Z,53.47
2018-11-02T04:18:05.626Z,50.78
2018-11-02T04:19:05.806Z,55.18
2018-11-02T04:20:05.974Z,51.51
2018-11-02T04:21:06.150Z,56.15
2018-11-02T04:22:06.392Z,52.98
2018-11-02T04:23:06.502Z,55.66
2018-11-02T04:24:06.681Z,50.78
2018-11-02T04:25:06.884Z,51.76
2018-11-02T04:26:07.024Z,52.73
2018-11-02T04:27:07.200Z,49.56
2018-11-02T04:28:07.373Z,49.80
2018-11-02T04:29:07.553Z,50.05
2018-11-02T04:30:07.733Z,51.51
2018-11-02T04:31:07.972Z,55.91
2018-11-02T04:32:08.075Z,50.05
2018-11-02T04:33:08.244Z,49.07
2018-11-02T04:34:08.416Z,50.05
2018-11-02T04:35:08.591Z,50.29
2018-11-02T04:36:08.765Z,51.27
2018-11-02T04:37:08.941Z,51.27
2018-11-02T04:38:09.118Z,51.76
2018-11-02T04:39:09.290Z,59.57
2018-11-02T04:40:09.501Z,61.04
2018-11-02T04:41:09.645Z,74.95
2018-11-02T04:42:09.817Z,55.66
2018-11-02T04:43:09.995Z,52.98
2018-11-02T04:44:10.173Z,50.54
2018-11-02T04:45:10.345Z,55.91
2018-11-02T04:46:10.518Z,51.76
2018-11-02T04:47:10.694Z,57.37
2018-11-02T04:48:10.870Z,56.40
2018-11-02T04:49:11.046Z,51.03
2018-11-02T04:50:11.220Z,51.51
2018-11-02T04:51:11.463Z,54.69
2018-11-02T04:52:11.571Z,53.47
2018-11-02T04:53:11.748Z,54.20
2018-11-02T04:54:11.926Z,52.00
2018-11-02T04:55:12.094Z,54.69
2018-11-02T04:56:12.267Z,53.22
2018-11-02T04:57:12.442Z,52.73
2018-11-02T04:58:12.620Z,55.91
2018-11-02T04:59:12.794Z,52.00
2018-11-02T05:00:12.997Z,69.82
2018-11-02T05:01:13.144Z,71.78
2018-11-02T05:02:13.319Z,54.20
2018-11-02T05:03:13.494Z,52.98
2018-11-02T05:04:13.673Z,57.86
2018-11-02T05:05:13.848Z,65.19
2018-11-02T05:06:14.025Z,62.26
2018-11-02T05:07:14.217Z,60.06
2018-11-02T05:08:14.380Z,64.70
2018-11-02T05:09:14.557Z,65.19
2018-11-02T05:10:14.729Z,59.81
2018-11-02T05:11:14.973Z,63.23
2018-11-02T05:12:15.078Z,63.96
2018-11-02T05:13:15.252Z,71.29
2018-11-02T05:14:15.437Z,60.30
2018-11-02T05:15:15.625Z,71.78
2018-11-02T05:16:15.776Z,55.91
2018-11-02T05:17:15.950Z,83.01
2018-11-02T05:18:16.123Z,65.92
2018-11-02T05:19:16.297Z,62.50
2018-11-02T05:20:16.475Z,56.40
2018-11-02T05:21:16.713Z,55.91
2018-11-02T05:22:16.825Z,67.14
2018-11-02T05:23:17.001Z,68.12
2018-11-02T05:24:17.177Z,60.79
2018-11-02T05:25:17.345Z,58.84
2018-11-02T05:26:17.513Z,63.23
2018-11-02T05:27:17.683Z,59.57
2018-11-02T05:28:17.857Z,63.48
2018-11-02T05:29:18.034Z,62.26
2018-11-02T05:30:18.209Z,68.12
2018-11-02T05:31:18.382Z,66.65
2018-11-02T05:32:18.564Z,61.28
2018-11-02T05:33:18.721Z,67.87
2018-11-02T05:34:18.887Z,57.13
2018-11-02T05:35:19.069Z,55.91
2018-11-02T05:36:19.239Z,58.84
2018-11-02T05:37:19.418Z,71.04
2018-11-02T05:38:19.601Z,60.55
2018-11-02T05:39:19.838Z,60.06
2018-11-02T05:40:19.945Z,56.64
2018-11-02T05:41:20.111Z,60.30
2018-11-02T05:42:20.287Z,57.37
2018-11-02T05:43:20.460Z,56.40
2018-11-02T05:44:20.633Z,59.08
2018-11-02T05:45:20.803Z,67.38
2018-11-02T05:46:20.979Z,61.28
2018-11-02T05:47:21.189Z,63.72
2018-11-02T05:48:21.323Z,63.72
2018-11-02T05:49:21.498Z,73.49
2018-11-02T05:50:21.674Z,63.72
2018-11-02T05:51:21.849Z,65.19
2018-11-02T05:52:22.021Z,66.16
2018-11-02T05:53:22.193Z,65.67
2018-11-02T05:54:22.455Z,66.89
2018-11-02T05:55:22.541Z,65.92
2018-11-02T05:56:22.721Z,64.45
2018-11-02T05:57:22.897Z,64.70
2018-11-02T05:58:23.074Z,64.70
2018-11-02T05:59:23.244Z,61.77
2018-11-02T06:00:31.050Z,68.36
2018-11-02T06:01:23.650Z,82.03
2018-11-02T06:02:23.769Z,79.59
2018-11-02T06:03:23.945Z,81.30
2018-11-02T06:04:24.121Z,82.76
2018-11-02T06:05:24.326Z,81.79
2018-11-02T06:06:24.467Z,79.83
2018-11-02T06:07:24.637Z,80.08
2018-11-02T06:08:24.810Z,79.10
2018-11-02T06:09:24.977Z,69.58
2018-11-02T06:10:25.151Z,77.39
2018-11-02T06:11:25.323Z,68.85
2018-11-02T06:12:25.500Z,71.53
2018-11-02T06:13:25.691Z,62.74
2018-11-02T06:14:25.843Z,68.36
2018-11-02T06:15:26.027Z,63.72
2018-11-02T06:16:26.205Z,69.58
2018-11-02T06:17:26.378Z,81.54
2018-11-02T06:18:26.552Z,73.24
2018-11-02T06:19:26.728Z,71.78
2018-11-02T06:20:26.908Z,66.16
2018-11-02T06:21:27.085Z,67.87
2018-11-02T06:22:27.261Z,60.30
2018-11-02T06:23:27.423Z,70.80
2018-11-02T06:24:27.696Z,67.38
2018-11-02T06:25:27.768Z,66.16
2018-11-02T06:26:27.946Z,72.27
2018-11-02T06:27:28.121Z,69.09
2018-11-02T06:28:28.291Z,63.72
2018-11-02T06:29:28.470Z,75.68
2018-11-02T06:30:28.671Z,66.16
2018-11-02T06:31:28.821Z,76.42
2018-11-02T06:32:29.015Z,64.45
2018-11-02T06:33:29.176Z,82.52
2018-11-02T06:34:29.352Z,67.87
2018-11-02T06:35:29.531Z,66.16
2018-11-02T06:36:29.706Z,72.27
2018-11-02T06:37:29.879Z,68.12
2018-11-02T06:38:30.117Z,73.24
2018-11-02T06:39:30.230Z,67.14
2018-11-02T06:40:30.408Z,73.00
2018-11-02T06:41:30.574Z,73.24
2018-11-02T06:42:30.751Z,63.72
2018-11-02T06:43:30.930Z,63.72
2018-11-02T06:44:31.111Z,74.46
2018-11-02T06:45:31.289Z,64.70
2018-11-02T06:46:31.450Z,69.09
2018-11-02T06:47:31.624Z,65.19
2018-11-02T06:48:31.802Z,70.07
2018-11-02T06:49:31.972Z,64.21
2018-11-02T06:50:32.147Z,65.43
2018-11-02T06:51:32.322Z,66.89
2018-11-02T06:52:32.503Z,67.38
2018-11-02T06:53:32.666Z,72.75
2018-11-02T06:54:32.846Z,67.38
2018-11-02T06:55:33.021Z,67.14
2018-11-02T06:56:33.197Z,64.70
2018-11-02T06:57:33.386Z,66.16
2018-11-02T06:58:33.546Z,63.96
2018-11-02T06:59:33.964Z,68.12
2018-11-02T07:00:33.996Z,67.14
2018-11-02T07:01:34.080Z,62.74
2018-11-02T07:02:34.274Z,67.63
2018-11-02T07:03:34.439Z,65.67
2018-11-02T07:04:34.626Z,73.73
2018-11-02T07:05:34.786Z,74.46
2018-11-02T07:06:34.956Z,66.41
2018-11-02T07:07:35.204Z,63.96
2018-11-02T07:08:35.318Z,63.48
2018-11-02T07:09:35.481Z,69.34
2018-11-02T07:10:35.655Z,75.20
2018-11-02T07:11:35.832Z,67.38
2018-11-02T07:12:36.010Z,69.09
2018-11-02T07:13:36.174Z,65.19
2018-11-02T07:14:36.355Z,68.36
2018-11-02T07:15:36.534Z,66.89
2018-11-02T07:16:36.702Z,65.19
2018-11-02T07:17:36.879Z,62.26
2018-11-02T07:18:37.046Z,64.45
2018-11-02T07:19:37.209Z,60.30
2018-11-02T07:20:37.384Z,62.74
2018-11-02T07:21:37.563Z,69.58
2018-11-02T07:22:37.741Z,68.60
2018-11-02T07:23:37.925Z,63.23
2018-11-02T07:24:38.088Z,68.36
2018-11-02T07:25:38.257Z,71.04
2018-11-02T07:26:38.431Z,68.12
2018-11-02T07:27:38.619Z,67.63
2018-11-02T07:28:38.770Z,69.58
2018-11-02T07:29:38.942Z,63.23
2018-11-02T07:30:39.119Z,77.15
2018-11-02T07:31:39.296Z,65.19
2018-11-02T07:32:39.472Z,64.21
2018-11-02T07:33:39.644Z,83.25
2018-11-02T07:34:39.819Z,62.50
2018-11-02T07:35:40.000Z,66.41
2018-11-02T07:36:40.161Z,66.16
2018-11-02T07:37:40.344Z,70.07
2018-11-02T07:38:40.511Z,62.99
2018-11-02T07:39:40.685Z,64.70
2018-11-02T07:40:40.915Z,66.89
2018-11-02T07:41:41.060Z,62.01
2018-11-02T07:42:41.219Z,62.26
2018-11-02T07:43:41.392Z,77.39
2018-11-02T07:44:41.570Z,64.21
2018-11-02T07:45:41.749Z,86.43
2018-11-02T07:46:41.925Z,64.94
2018-11-02T07:47:42.257Z,76.17
2018-11-02T07:48:42.274Z,81.54
2018-11-02T07:49:42.572Z,70.31
2018-11-02T07:50:42.666Z,63.72
2018-11-02T07:51:42.842Z,65.19
2018-11-02T07:52:43.028Z,61.28
2018-11-02T07:53:43.214Z,65.19
2018-11-02T07:54:43.365Z,71.53
2018-11-02T07:55:43.533Z,66.16
2018-11-02T07:56:43.701Z,72.02
2018-11-02T07:57:43.883Z,67.14
2018-11-02T07:58:44.053Z,65.67
2018-11-02T07:59:44.229Z,65.67
2018-11-02T08:00:44.405Z,68.60
2018-11-02T08:01:44.690Z,65.92
2018-11-02T08:02:44.759Z,62.50
2018-11-02T08:03:44.920Z,67.63
2018-11-02T08:04:45.094Z,74.95
2018-11-02T08:05:45.274Z,69.82
2018-11-02T08:06:45.451Z,66.41
2018-11-02T08:07:45.619Z,68.36
2018-11-02T08:08:45.803Z,66.65
2018-11-02T08:09:45.983Z,64.70
2018-11-02T08:10:46.154Z,66.89
2018-11-02T08:11:46.332Z,71.53
2018-11-02T08:12:46.515Z,75.44
2018-11-02T08:13:46.687Z,64.45
2018-11-02T08:14:46.862Z,60.79
2018-11-02T08:15:47.038Z,63.72
2018-11-02T08:16:47.214Z,64.21
2018-11-02T08:17:47.511Z,64.21
2018-11-02T08:18:47.597Z,61.52
2018-11-02T08:19:47.768Z,59.81
2018-11-02T08:20:47.921Z,65.19
2018-11-02T08:21:48.082Z,64.45
2018-11-02T08:22:48.260Z,83.25
2018-11-02T08:23:48.437Z,80.08
2018-11-02T08:24:48.613Z,67.87
2018-11-02T08:25:48.790Z,85.69
2018-11-02T08:26:48.966Z,82.52
2018-11-02T08:27:49.160Z,64.21
2018-11-02T08:28:49.314Z,67.38
2018-11-02T08:29:49.489Z,68.12
2018-11-02T08:30:49.668Z,69.82
2018-11-02T08:31:49.899Z,67.14
2018-11-02T08:32:50.020Z,66.89
2018-11-02T08:33:50.203Z,64.45
2018-11-02T08:34:50.381Z,72.75
2018-11-02T08:35:50.548Z,62.01
2018-11-02T08:36:50.714Z,97.17
2018-11-02T08:37:50.899Z,80.81
2018-11-02T08:38:51.056Z,71.78
2018-11-02T08:39:51.227Z,64.70
2018-11-02T08:40:51.392Z,64.21
2018-11-02T08:41:51.573Z,67.38
2018-11-02T08:42:51.773Z,70.31
2018-11-02T08:43:52.028Z,68.60
2018-11-02T08:44:52.191Z,68.60
2018-11-02T08:45:52.431Z,71.78
2018-11-02T08:46:52.524Z,73.24
2018-11-02T08:47:52.703Z,66.16
2018-11-02T08:48:52.882Z,64.94
2018-11-02T08:49:53.050Z,68.60
2018-11-02T08:50:53.230Z,66.89
2018-11-02T08:51:53.411Z,65.43
2018-11-02T08:52:53.581Z,65.67
2018-11-02T08:53:53.759Z,64.21
2018-11-02T08:54:54.043Z,68.12
2018-11-02T08:55:54.162Z,63.72
2018-11-02T08:56:54.290Z,71.29
2018-11-02T08:57:54.611Z,65.19
2018-11-02T08:58:54.664Z,62.74
2018-11-02T08:59:54.860Z,66.89
2018-11-02T09:00:54.965Z,70.31
2018-11-02T09:01:55.141Z,62.01
2018-11-02T09:02:55.318Z,69.34
2018-11-02T09:03:55.479Z,68.85
2018-11-02T09:04:55.701Z,65.67
2018-11-02T09:05:55.837Z,62.74
2018-11-02T09:06:56.023Z,62.26
2018-11-02T09:07:56.195Z,60.30
2018-11-02T09:08:56.355Z,63.48
2018-11-02T09:09:56.537Z,64.70
2018-11-02T09:10:56.709Z,66.89
2018-11-02T09:11:56.944Z,66.89
2018-11-02T09:12:57.064Z,68.85
2018-11-02T09:13:57.236Z,75.20
2018-11-02T09:14:57.410Z,67.63
2018-11-02T09:15:57.580Z,71.29
2018-11-02T09:16:57.757Z,70.31
2018-11-02T09:17:57.936Z,63.96
2018-11-02T09:18:58.143Z,71.29
2018-11-02T09:19:58.291Z,66.65
2018-11-02T09:20:58.468Z,63.23
2018-11-02T09:21:58.652Z,77.64
2018-11-02T09:22:58.828Z,62.01
2018-11-02T09:23:59.011Z,62.74
2018-11-02T09:24:59.201Z,63.48
2018-11-02T09:25:59.375Z,62.99
2018-11-02T09:26:59.551Z,65.67
2018-11-02T09:27:59.892Z,68.36
2018-11-02T09:28:59.931Z,69.34
2018-11-02T09:30:00.092Z,70.80
2018-11-02T09:31:00.258Z,76.66
2018-11-02T09:32:00.438Z,67.63
2018-11-02T09:33:00.622Z,71.53
2018-11-02T09:34:00.790Z,64.94
2018-11-02T09:35:00.969Z,64.94
2018-11-02T09:36:01.131Z,62.74
2018-11-02T09:37:01.304Z,63.48
2018-11-02T09:38:01.480Z,63.48
2018-11-02T09:39:01.641Z,66.65
2018-11-02T09:40:01.830Z,70.80
2018-11-02T09:41:01.994Z,62.50
2018-11-02T09:42:02.167Z,70.56
2018-11-02T09:43:02.331Z,63.48
2018-11-02T09:44:02.521Z,65.19
2018-11-02T09:45:02.691Z,64.45
2018-11-02T09:46:02.887Z,65.43
2018-11-02T09:47:03.089Z,75.93
2018-11-02T09:48:03.265Z,62.99
2018-11-02T09:49:03.433Z,65.43
2018-11-02T09:50:03.598Z,61.28
2018-11-02T09:51:03.766Z,67.87
2018-11-02T09:52:04.008Z,68.60
2018-11-02T09:53:04.121Z,66.41
2018-11-02T09:54:04.271Z,66.65
2018-11-02T09:55:04.466Z,69.34
2018-11-02T09:56:04.623Z,74.95
2018-11-02T09:57:04.794Z,64.94
2018-11-02T09:58:05.024Z,74.95
2018-11-02T09:59:05.145Z,63.96
2018-11-02T10:00:05.356Z,68.85
2018-11-02T10:01:05.547Z,81.30
2018-11-02T10:02:05.776Z,63.96
2018-11-02T10:03:05.883Z,69.58
2018-11-02T10:04:06.077Z,66.16
2018-11-02T10:05:06.226Z,65.19
2018-11-02T10:06:06.411Z,81.30
2018-11-02T10:07:06.585Z,80.81
2018-11-02T10:08:06.763Z,81.79
2018-11-02T10:09:06.986Z,82.52
2018-11-02T10:10:07.367Z,63.72
2018-11-02T10:11:07.310Z,66.89
2018-11-02T10:12:07.491Z,77.39
2018-11-02T10:13:07.667Z,67.63
2018-11-02T10:14:07.848Z,76.90
2018-11-02T10:15:08.033Z,70.31
2018-11-02T10:16:08.201Z,64.70
2018-11-02T10:17:08.395Z,65.67
2018-11-02T10:18:08.562Z,65.19
2018-11-02T10:19:08.744Z,60.79
2018-11-02T10:20:08.919Z,65.19
2018-11-02T10:21:09.099Z,71.78
2018-11-02T10:22:09.279Z,63.48
2018-11-02T10:23:09.463Z,71.53
2018-11-02T10:24:09.639Z,62.74
2018-11-02T10:25:09.834Z,64.45
2018-11-02T10:26:10.005Z,62.26
2018-11-02T10:27:10.182Z,71.29
2018-11-02T10:28:10.461Z,63.72
2018-11-02T10:29:10.538Z,73.49
2018-11-02T10:30:10.716Z,63.48
2018-11-02T10:31:10.886Z,68.60
2018-11-02T10:32:11.066Z,63.96
2018-11-02T10:33:11.244Z,64.21
2018-11-02T10:34:11.422Z,63.72
2018-11-02T10:35:11.602Z,66.16
2018-11-02T10:36:11.886Z,67.87
2018-11-02T10:37:11.950Z,65.19
2018-11-02T10:38:12.131Z,67.63
2018-11-02T10:39:12.307Z,64.21
2018-11-02T10:40:12.529Z,62.01
2018-11-02T10:41:12.669Z,62.99
2018-11-02T10:42:12.840Z,62.99
2018-11-02T10:43:13.021Z,72.02
2018-11-02T10:44:13.230Z,63.96
2018-11-02T10:45:13.383Z,67.14
2018-11-02T10:46:13.557Z,68.36
2018-11-02T10:47:13.731Z,69.82
2018-11-02T10:48:13.899Z,63.48
2018-11-02T10:49:14.088Z,73.97
2018-11-02T10:50:14.251Z,65.19
2018-11-02T10:51:14.443Z,65.43
2018-11-02T10:52:14.609Z,65.19
2018-11-02T10:53:14.788Z,67.38
2018-11-02T10:54:14.967Z,69.82
2018-11-02T10:55:15.147Z,70.31
2018-11-02T10:56:15.344Z,69.58
2018-11-02T10:57:15.500Z,61.28
2018-11-02T10:58:15.679Z,64.21
2018-11-02T10:59:15.841Z,66.65
2018-11-02T11:00:16.029Z,76.66
2018-11-02T11:01:16.241Z,83.25
2018-11-02T11:02:16.380Z,83.98
2018-11-02T11:03:16.574Z,83.74
2018-11-02T11:04:16.771Z,84.47
2018-11-02T11:05:16.979Z,83.74
2018-11-02T11:06:17.125Z,83.74
2018-11-02T11:07:17.307Z,61.04
2018-11-02T11:08:17.485Z,63.48
2018-11-02T11:09:17.660Z,64.21
2018-11-02T11:10:17.837Z,64.21
2018-11-02T11:11:18.063Z,63.96
2018-11-02T11:12:18.312Z,66.41
2018-11-02T11:13:18.785Z,81.30
2018-11-02T11:14:18.551Z,65.92
2018-11-02T11:15:18.734Z,65.43
2018-11-02T11:16:18.900Z,74.95
2018-11-02T11:17:19.069Z,60.06
2018-11-02T11:18:19.249Z,64.94
2018-11-02T11:19:19.431Z,69.09
2018-11-02T11:20:19.607Z,62.01
2018-11-02T11:21:19.871Z,60.55
2018-11-02T11:22:19.963Z,64.21
2018-11-02T11:23:20.136Z,66.16
2018-11-02T11:24:20.320Z,61.28
2018-11-02T11:25:20.482Z,64.45
2018-11-02T11:26:20.660Z,63.72
2018-11-02T11:27:20.837Z,62.74
2018-11-02T11:28:21.015Z,64.70
2018-11-02T11:29:21.318Z,63.48
2018-11-02T11:30:21.437Z,71.29
2018-11-02T11:31:21.641Z,60.06
2018-11-02T11:32:21.706Z,63.72
2018-11-02T11:33:21.904Z,62.01
2018-11-02T11:34:22.073Z,63.72
2018-11-02T11:35:22.239Z,69.58
2018-11-02T11:36:22.413Z,64.94
2018-11-02T11:37:22.595Z,63.72
2018-11-02T11:38:22.762Z,70.31
2018-11-02T11:39:22.965Z,62.50
2018-11-02T11:40:23.125Z,62.26
2018-11-02T11:41:23.304Z,61.28
2018-11-02T11:42:23.473Z,65.92
2018-11-02T11:43:23.646Z,70.80
2018-11-02T11:44:23.831Z,65.43
2018-11-02T11:45:24.000Z,64.94
2018-11-02T11:46:24.177Z,59.33
2018-11-02T11:47:24.349Z,64.21
2018-11-02T11:48:24.578Z,60.55
2018-11-02T11:49:24.710Z,67.87
2018-11-02T11:50:25.358Z,68.36
2018-11-02T11:51:25.044Z,73.00
2018-11-02T11:52:25.219Z,71.29
2018-11-02T11:53:25.392Z,60.55
2018-11-02T11:54:25.633Z,63.96
2018-11-02T11:55:25.775Z,62.50
2018-11-02T11:56:25.910Z,65.67
2018-11-02T11:57:26.082Z,66.65
2018-11-02T11:58:26.249Z,71.04
2018-11-02T11:59:26.404Z,70.80
2018-11-02T12:00:26.599Z,65.43
2018-11-02T12:01:26.799Z,68.36
2018-11-02T12:02:27.005Z,64.21
2018-11-02T12:03:27.120Z,65.43
2018-11-02T12:04:27.318Z,79.59
2018-11-02T12:05:27.476Z,64.21
2018-11-02T12:06:27.648Z,67.14
2018-11-02T12:07:27.901Z,60.55
2018-11-02T12:08:28.007Z,65.19
2018-11-02T12:09:28.179Z,59.57
2018-11-02T12:10:28.397Z,65.67
2018-11-02T12:11:28.518Z,62.26
2018-11-02T12:12:28.695Z,66.41
2018-11-02T12:13:29.016Z,74.22
2018-11-02T12:14:29.066Z,73.00
2018-11-02T12:15:29.259Z,67.87
2018-11-02T12:16:29.596Z,71.29
2018-11-02T12:17:30.162Z,69.82
2018-11-02T12:18:29.920Z,67.38
2018-11-02T12:19:30.033Z,67.38
2018-11-02T12:20:30.902Z,72.02
2018-11-02T12:21:30.732Z,67.38
2018-11-02T12:22:31.381Z,87.89
2018-11-02T12:23:31.049Z,66.16
2018-11-02T12:24:30.855Z,66.65
2018-11-02T12:25:35.216Z,63.72
2018-11-02T12:26:31.525Z,73.97
2018-11-02T12:27:31.604Z,71.53
2018-11-02T12:28:31.756Z,70.56
2018-11-02T12:29:31.977Z,77.64
2018-11-02T12:30:32.435Z,71.53
2018-11-02T12:31:32.197Z,66.41
2018-11-02T12:32:32.540Z,67.14
2018-11-02T12:33:32.510Z,66.65
2018-11-02T12:34:32.723Z,77.64
2018-11-02T12:35:32.892Z,70.56
2018-11-02T12:36:33.075Z,69.58
2018-11-02T12:37:33.236Z,70.56
2018-11-02T12:38:33.422Z,79.10
2018-11-02T12:39:33.722Z,82.76
2018-11-02T12:40:33.802Z,73.49
2018-11-02T12:41:33.994Z,67.87
2018-11-02T12:42:34.129Z,73.73
2018-11-02T12:43:34.415Z,66.65
2018-11-02T12:44:34.484Z,67.38
2018-11-02T12:45:34.660Z,66.65
2018-11-02T12:46:34.871Z,64.21
2018-11-02T12:47:35.004Z,68.36
2018-11-02T12:48:35.277Z,62.50
2018-11-02T12:49:35.735Z,66.89
2018-11-02T12:50:35.758Z,62.01
2018-11-02T12:51:35.668Z,66.16
2018-11-02T12:52:35.837Z,66.16
2018-11-02T12:53:36.030Z,64.94
2018-11-02T12:54:36.193Z,65.43
2018-11-02T12:55:36.352Z,63.23
2018-11-02T12:56:36.533Z,62.01
2018-11-02T12:57:36.812Z,65.19
2018-11-02T12:58:36.894Z,64.21